This is the latest recevied weather packets stored in our database for station/object KC1IUC-13. If no packets are shown the sender has not sent any weather packets the latest 1 day(s).
| Time | Temp. | Humidity | Pressure | Rain* | Wind** | Luminosity | Snow |
|---|---|---|---|---|---|---|---|
| 1778102824 | 15° C | 91% | 1002.8 hPa | 0.51 mm | - | 12 W/m² | - |
| 1778079244 | 19.44° C | 78% | 1005.6 hPa | 0 mm | - | 106 W/m² | - |
| 1778062144 | 13.33° C | 84% | 1006.3 hPa | 0 mm | - | 9 W/m² | - |
| 1778061244 | 12.78° C | 84% | 1006.3 hPa | 0 mm | - | 3 W/m² | - |
| 1778060704 | 12.78° C | 83% | 1005.9 hPa | 0 mm | - | 1 W/m² | - |
| 1778059624 | 12.78° C | 83% | 1005.9 hPa | 0 mm | - | 0 W/m² | - |
| 1778059084 | 12.78° C | 83% | 1005.9 hPa | 0 mm | - | 0 W/m² | - |
| 1778057644 | 12.78° C | 82% | 1006.3 hPa | 0 mm | - | 0 W/m² | - |
| 1778057104 | 13.33° C | 81% | 1006.3 hPa | 0 mm | - | 0 W/m² | - |
| 1778056564 | 13.33° C | 81% | 1006.6 hPa | 0 mm | - | 0 W/m² | - |
| 1778056024 | 13.33° C | 81% | 1006.6 hPa | 0 mm | - | 0 W/m² | - |
| 1778055484 | 13.33° C | 81% | 1006.6 hPa | 0 mm | - | 0 W/m² | - |
| 1778054044 | 13.33° C | 80% | 1006.3 hPa | 0 mm | - | 0 W/m² | - |
| 1778052964 | 13.89° C | 79% | 1006.6 hPa | 0 mm | - | 0 W/m² | - |
| 1778052424 | 13.89° C | 79% | 1006.6 hPa | 0 mm | - | 0 W/m² | - |
| 1778051884 | 13.89° C | 78% | 1006.6 hPa | 0 mm | - | 0 W/m² | - |
| 1778051344 | 13.89° C | 78% | 1006.6 hPa | 0 mm | - | 0 W/m² | - |
| 1778049904 | 14.44° C | 77% | 1006.3 hPa | 0 mm | - | 0 W/m² | - |
| 1778049364 | 14.44° C | 76% | 1006.6 hPa | 0 mm | - | 0 W/m² | - |
| 1778048824 | 14.44° C | 76% | 1006.6 hPa | 0 mm | - | 0 W/m² | - |
| 1778048284 | 14.44° C | 76% | 1006.3 hPa | 0 mm | - | 0 W/m² | - |
| 1778047744 | 14.44° C | 75% | 1006.3 hPa | 0 mm | - | 0 W/m² | - |
| 1778046844 | 14.44° C | 75% | 1006.6 hPa | 0 mm | - | 0 W/m² | - |
| 1778046304 | 15° C | 74% | 1006.6 hPa | 0 mm | - | 0 W/m² | - |
| 1778045764 | 15° C | 74% | 1006.6 hPa | 0 mm | - | 0 W/m² | - |
* Rain latest hour (hover to see other rain measurements)
** Current wind speed in m/s (hover to see current wind gust speed)